.
WxDataArchive / Data Records for 2011-01-24
2011-01-23 January 2011 2011-01-25

Data Records for Monday, 24 January 2011

Time	Temp	Chill	HIndex	Humid	Dewpt	 Wind 	HiWind	WindDir	Rain 	Barom 
-----	----	-----	------	-----	-----	------	------	-------	-----	----- 
00:00	5.6	5.6	5.6	68	-2.6	0	2	90	0.00	30.320 
00:05	5.8	5.8	5.8	68	-2.4	0	1	90	0.00	30.320 
00:10	6.0	6.0	6.0	68	-2.3	1	3	90	0.00	30.320 
00:15	6.1	6.1	6.1	68	-2.2	1	2	90	0.00	30.305 
00:20	6.3	6.3	6.3	68	-2.0	1	3	90	0.00	30.305 
00:25	6.5	6.5	6.5	67	-2.1	2	4	90	0.00	30.305 
00:30	6.7	6.7	6.7	67	-1.9	2	4	90	0.00	30.295 
00:35	6.9	6.9	6.9	67	-1.7	2	3	90	0.00	30.295 
00:40	7.0	7.0	7.0	67	-1.6	1	5	90	0.00	30.295 
00:45	7.2	7.2	7.2	66	-1.7	1	3	90	0.00	30.297 
00:50	7.4	7.4	7.4	66	-1.5	1	4	112	0.00	30.297 
00:55	7.6	7.6	7.6	65	-1.7	1	4	90	0.00	30.297 
01:00	7.7	7.7	7.7	65	-1.6	1	3	90	0.00	30.292 
01:05	7.7	7.7	7.7	65	-1.6	1	4	90	0.00	30.292 
01:10	7.9	7.9	7.9	65	-1.4	1	3	90	0.00	30.292 
01:15	7.9	7.9	7.9	65	-1.4	1	4	90	0.00	30.294 
01:20	7.9	7.9	7.9	65	-1.4	1	3	90	0.00	30.294 
01:25	7.9	7.9	7.9	65	-1.4	1	3	90	0.00	30.294 
01:30	7.9	7.9	7.9	65	-1.4	0	2	90	0.00	30.298 
01:35	7.9	7.9	7.9	65	-1.4	1	2	90	0.00	30.298 
01:40	7.9	7.9	7.9	65	-1.4	1	3	90	0.00	30.298 
01:45	8.3	8.3	8.3	64	-1.3	1	3	90	0.00	30.295 
01:50	8.4	8.4	8.4	64	-1.2	1	3	90	0.00	30.295 
01:55	8.6	8.6	8.6	63	-1.4	2	4	90	0.00	30.295 
02:00	8.8	8.8	8.8	63	-1.2	2	5	90	0.00	30.288 
02:05	8.8	8.8	8.8	63	-1.2	2	4	90	0.00	30.288 
02:10	9.0	9.0	9.0	64	-0.7	2	4	90	0.00	30.288 
02:15	8.8	8.8	8.8	64	-0.9	2	5	112	0.00	30.282 
02:20	8.8	8.8	8.8	65	-0.5	2	4	90	0.00	30.282 
02:25	8.8	8.8	8.8	65	-0.5	2	5	90	0.00	30.282 
02:30	8.8	8.8	8.8	65	-0.5	2	7	90	0.00	30.278 
02:35	9.0	9.0	9.0	65	-0.3	2	4	90	0.00	30.278 
02:40	9.0	9.0	9.0	65	-0.3	2	5	90	0.00	30.278 
02:45	9.0	9.0	9.0	65	-0.3	2	5	90	0.00	30.281 
02:50	9.2	9.2	9.2	66	0.2	2	4	112	0.00	30.281 
02:55	9.2	9.2	9.2	66	0.2	2	5	112	0.00	30.281 
03:00	9.3	9.3	9.3	67	0.6	1	3	90	0.00	30.278 
03:05	9.3	9.3	9.3	67	0.6	2	4	90	0.00	30.278 
03:10	9.5	9.5	9.5	67	0.8	2	4	90	0.00	30.278 
03:15	9.7	9.7	9.7	67	1.0	2	4	90	0.00	30.274 
03:20	9.9	9.9	9.9	67	1.2	2	3	90	0.00	30.274 
03:25	9.9	9.9	9.9	68	1.5	2	4	90	0.00	30.274 
03:30	10.0	10.0	10.0	69	1.9	2	5	90	0.00	30.269 
03:35	10.0	10.0	10.0	69	1.9	2	5	90	0.00	30.269 
03:40	10.0	10.0	10.0	70	2.2	1	4	112	0.00	30.269 
03:45	10.2	10.2	10.2	71	2.7	2	4	112	0.00	30.266 
03:50	10.2	10.2	10.2	71	2.7	3	6	112	0.00	30.266 
03:55	10.2	10.2	10.2	73	3.3	1	4	90	0.00	30.266 
04:00	10.2	10.2	10.2	73	3.3	2	5	90	0.00	30.260 
04:05	10.2	10.2	10.2	73	3.3	3	5	90	0.00	30.260 
04:10	10.2	10.2	10.2	74	3.6	2	5	112	0.00	30.260 
04:15	10.2	10.2	10.2	74	3.6	2	4	90	0.00	30.250 
04:20	10.2	10.2	10.2	75	3.9	2	5	112	0.00	30.250 
04:25	10.4	10.4	10.4	76	4.4	2	4	112	0.00	30.250 
04:30	10.4	10.4	10.4	76	4.4	2	5	112	0.00	30.240 
04:35	10.5	10.5	10.5	76	4.5	2	4	90	0.00	30.240 
04:40	10.5	10.5	10.5	77	4.7	2	6	90	0.00	30.240 
04:45	10.7	10.7	10.7	77	4.9	2	4	112	0.00	30.235 
04:50	10.9	10.9	10.9	77	5.1	2	4	112	0.00	30.235 
04:55	11.1	11.1	11.1	77	5.3	2	4	112	0.00	30.235 
05:00	11.1	11.1	11.1	77	5.3	2	4	90	0.00	30.228 
05:05	11.2	11.2	11.2	78	5.7	2	5	112	0.00	30.228 
05:10	11.4	11.4	11.4	78	5.9	1	4	90	0.00	30.228 
05:15	11.6	11.6	11.6	78	6.1	1	4	90	0.00	30.227 
05:20	11.7	11.7	11.7	79	6.5	1	5	45	0.00	30.227 
05:25	11.9	11.9	11.9	79	6.7	1	4	112	0.00	30.227 
05:30	11.9	11.9	11.9	79	6.7	1	4	112	0.00	30.221 
05:35	12.1	12.1	12.1	79	6.9	2	6	90	0.00	30.221 
05:40	12.3	12.3	12.3	80	7.3	1	3	112	0.00	30.221 
05:45	12.3	12.3	12.3	80	7.3	2	5	90	0.00	30.214 
05:50	12.4	12.4	12.4	80	7.4	1	5	90	0.00	30.214 
05:55	12.4	12.4	12.4	81	7.7	2	4	90	0.00	30.214 
06:00	12.6	12.6	12.6	81	7.9	2	6	112	0.00	30.210 
06:05	12.6	12.6	12.6	81	7.9	2	5	135	0.00	30.210 
06:10	12.8	12.8	12.8	81	8.1	2	4	90	0.00	30.210 
06:15	12.8	12.8	12.8	82	8.4	2	5	90	0.00	30.207 
06:20	12.8	12.8	12.8	82	8.4	2	4	90	0.00	30.207 
06:25	12.9	12.9	12.9	82	8.5	2	4	90	0.00	30.207 
06:30	12.9	12.9	12.9	83	8.7	2	5	90	0.00	30.203 
06:35	13.1	13.1	13.1	83	8.9	2	7	90	0.00	30.203 
06:40	13.3	13.3	13.3	83	9.1	2	7	90	0.00	30.203 
06:45	13.3	13.3	13.3	84	9.4	2	6	112	0.00	30.197 
06:50	13.5	13.5	13.5	84	9.6	2	6	112	0.00	30.197 
06:55	13.6	13.6	13.6	84	9.7	2	3	90	0.00	30.197 
07:00	13.8	13.8	13.8	84	9.9	2	5	112	0.00	30.193 
07:05	13.8	13.8	13.8	84	9.9	1	4	68	0.00	30.193 
07:10	14.0	14.0	14.0	84	10.1	2	6	112	0.00	30.193 
07:15	14.0	14.0	14.0	84	10.1	1	4	112	0.00	30.192 
07:20	14.1	14.1	14.1	84	10.2	2	4	112	0.00	30.192 
07:25	14.1	14.1	14.1	84	10.2	2	5	90	0.00	30.192 
07:30	14.3	14.3	14.3	84	10.4	2	4	112	0.00	30.189 
07:35	14.3	14.3	14.3	84	10.4	1	4	90	0.00	30.189 
07:40	14.4	14.4	14.4	84	10.5	1	4	90	0.00	30.189 
07:45	14.4	14.4	14.4	84	10.5	2	4	90	0.00	30.180 
07:50	14.6	14.6	14.6	84	10.7	1	4	90	0.00	30.180 
07:55	14.8	14.8	14.8	84	10.9	1	4	90	0.00	30.180 
08:00	14.9	14.9	14.9	85	11.2	1	4	112	0.00	30.178 
08:05	15.1	15.1	15.1	85	11.4	1	4	90	0.00	30.178 
08:10	15.2	15.2	15.2	85	11.5	1	5	112	0.00	30.178 
08:15	15.2	15.2	15.2	85	11.5	1	3	90	0.00	30.176 
08:20	15.4	15.4	15.4	85	11.7	1	5	90	0.00	30.176 
08:25	15.6	15.6	15.6	85	11.9	1	4	112	0.00	30.176 
08:30	15.7	15.7	15.7	85	12.0	1	3	112	0.00	30.175 
08:35	15.7	15.7	15.7	85	12.0	1	2	112	0.00	30.175 
08:40	15.9	15.9	15.9	85	12.2	1	5	135	0.00	30.175 
08:45	16.1	16.1	16.1	85	12.4	0	3	112	0.00	30.172 
08:50	16.2	16.2	16.2	85	12.5	0	2	112	0.00	30.172 
08:55	16.2	16.2	16.2	85	12.5	1	3	135	0.00	30.172 
09:00	16.4	16.4	16.4	85	12.7	1	2	112	0.00	30.174 
09:05	16.5	16.5	16.5	85	12.8	1	3	135	0.00	30.174 
09:10	16.7	16.7	16.7	86	13.3	1	3	112	0.00	30.174 
09:15	16.9	16.9	16.9	86	13.5	0	2	112	0.00	30.172 
09:20	17.0	17.0	17.0	86	13.6	0	1	112	0.00	30.172 
09:25	17.3	17.3	17.3	86	13.8	0	2	112	0.00	30.172 
09:30	17.5	17.5	17.5	86	14.0	1	3	112	0.00	30.169 
09:35	17.7	17.7	17.7	86	14.2	0	2	112	0.00	30.169 
09:40	18.0	18.0	18.0	86	14.5	1	2	68	0.00	30.169 
09:45	18.1	18.1	18.1	86	14.6	0	2	135	0.00	30.168 
09:50	18.3	18.3	18.3	86	14.8	0	2	112	0.00	30.168 
09:55	18.6	18.6	18.6	86	15.1	0	3	112	0.00	30.168 
10:00	18.8	18.8	18.8	86	15.3	1	3	112	0.00	30.168 
10:05	18.9	18.9	18.9	86	15.4	1	3	90	0.00	30.168 
10:10	19.1	19.1	19.1	85	15.3	1	5	90	0.00	30.168 
10:15	19.2	19.2	19.2	85	15.4	1	2	112	0.00	30.167 
10:20	19.4	19.4	19.4	85	15.6	0	3	112	0.00	30.167 
10:25	19.5	19.5	19.5	85	15.7	1	3	112	0.00	30.167 
10:30	19.7	19.7	19.7	85	15.9	1	3	90	0.00	30.166 
10:35	19.9	19.9	19.9	85	16.1	1	3	135	0.00	30.166 
10:40	20.0	20.0	20.0	85	16.2	0	3	135	0.00	30.166 
10:45	20.2	20.2	20.2	84	16.2	0	3	112	0.00	30.168 
10:50	20.2	20.2	20.2	84	16.2	0	3	112	0.00	30.168 
10:55	20.3	20.3	20.3	84	16.3	0	2	112	0.00	30.168 
11:00	20.5	20.5	20.5	84	16.4	0	2	90	0.00	30.165 
11:05	20.8	20.8	20.8	84	16.7	1	3	90	0.00	30.165 
11:10	21.0	21.0	21.0	84	16.9	1	3	68	0.00	30.165 
11:15	21.1	21.1	21.1	84	17.0	1	3	112	0.00	30.159 
11:20	21.4	21.4	21.4	84	17.3	1	3	112	0.00	30.159 
11:25	21.6	21.6	21.6	84	17.5	1	5	90	0.00	30.159 
11:30	21.8	21.8	21.8	84	17.7	1	4	135	0.00	30.156 
11:35	21.9	21.9	21.9	84	17.8	1	2	135	0.00	30.156 
11:40	22.1	22.1	22.1	84	18.0	0	2	112	0.00	30.156 
11:45	22.2	22.2	22.2	84	18.1	1	3	90	0.00	30.153 
11:50	22.4	22.4	22.4	85	18.6	0	2	90	0.00	30.153 
11:55	22.9	22.9	22.9	85	19.1	0	2	90	0.00	30.153 
12:00	23.0	23.0	23.0	85	19.2	1	3	90	0.00	30.148 
12:05	23.3	23.3	23.3	85	19.5	1	3	90	0.00	30.148 
12:10	23.5	23.5	23.5	84	19.4	1	3	90	0.00	30.148 
12:15	23.6	23.6	23.6	85	19.8	1	2	68	0.00	30.132 
12:20	23.9	23.9	23.9	84	19.8	1	3	68	0.00	30.132 
12:25	24.2	24.2	24.2	85	20.4	0	2	135	0.00	30.132 
12:30	24.4	24.4	24.4	84	20.3	1	3	112	0.00	30.125 
12:35	24.7	24.7	24.7	84	20.6	1	3	112	0.00	30.125 
12:40	24.8	24.8	24.8	85	20.9	0	2	90	0.00	30.125 
12:45	25.1	25.1	25.1	85	21.2	1	3	90	0.00	30.117 
12:50	25.3	25.3	25.3	85	21.4	1	2	90	0.00	30.117 
12:55	25.6	25.6	25.6	85	21.7	0	3	90	0.00	30.117 
13:00	25.7	25.7	25.7	84	21.5	1	3	90	0.00	30.104 
13:05	26.0	26.0	26.0	84	21.8	0	2	90	0.00	30.104 
13:10	26.1	26.1	26.1	84	21.9	0	2	90	0.00	30.104 
13:15	26.3	26.3	26.3	84	22.1	0	2	90	0.00	30.100 
13:20	26.3	26.3	26.3	84	22.1	0	2	90	0.00	30.100 
13:25	26.3	26.3	26.3	84	22.1	0	2	90	0.00	30.100 
13:30	26.4	26.4	26.4	84	22.2	1	3	90	0.00	30.096 
13:35	26.4	26.4	26.4	85	22.5	0	2	45	0.00	30.096 
13:40	26.6	26.6	26.6	85	22.7	1	5	112	0.00	30.096 
13:45	26.6	26.6	26.6	85	22.7	0	3	112	0.00	30.084 
13:50	26.6	26.6	26.6	85	22.7	1	3	270	0.00	30.084 
13:55	26.7	26.7	26.7	85	22.8	0	2	270	0.00	30.084 
14:00	26.9	26.9	26.9	85	23.0	0	1	270	0.00	30.082 
14:05	26.9	26.9	26.9	85	23.0	1	2	270	0.00	30.082 
14:10	26.9	26.9	26.9	85	23.0	0	3	45	0.00	30.082 
14:15	27.0	27.0	27.0	85	23.1	0	2	45	0.00	30.080 
14:20	27.2	27.2	27.2	85	23.3	0	1	45	0.00	30.080 
14:25	27.2	27.2	27.2	85	23.3	0	2	292	0.00	30.080 
14:30	27.3	27.3	27.3	85	23.4	0	2	292	0.00	30.075 
14:35	27.3	27.3	27.3	85	23.4	0	3	292	0.00	30.075 
14:40	27.5	27.5	27.5	85	23.6	0	2	68	0.00	30.075 
14:45	27.6	27.6	27.6	85	23.7	1	3	68	0.00	30.067 
14:50	27.6	27.6	27.6	85	23.7	1	3	112	0.00	30.067 
14:55	27.8	27.8	27.8	86	24.2	0	2	90	0.00	30.067 
15:00	28.1	28.1	28.1	86	24.5	0	2	90	0.00	30.069 
15:05	28.1	28.1	28.1	85	24.2	1	4	248	0.00	30.069 
15:10	28.2	28.2	28.2	85	24.3	0	2	248	0.00	30.069 
15:15	28.2	28.2	28.2	85	24.3	1	3	225	0.00	30.076 
15:20	28.4	28.4	28.4	85	24.5	1	2	225	0.00	30.076 
15:25	28.5	28.5	28.5	85	24.6	1	3	225	0.00	30.076 
15:30	28.7	28.7	28.7	85	24.8	1	4	225	0.00	30.072 
15:35	28.8	28.8	28.8	85	24.9	0	3	225	0.00	30.072 
15:40	28.8	28.8	28.8	85	24.9	0	2	248	0.00	30.072 
15:45	29.0	29.0	29.0	85	25.1	0	2	270	0.00	30.072 
15:50	29.0	29.0	29.0	85	25.1	0	2	270	0.00	30.072 
15:55	29.0	29.0	29.0	85	25.1	0	3	270	0.00	30.072 
16:00	29.0	29.0	29.0	85	25.1	1	5	248	0.00	30.073 
16:05	29.1	29.1	29.1	85	25.2	0	2	248	0.00	30.073 
16:10	29.1	29.1	29.1	85	25.2	1	3	248	0.00	30.073 
16:15	29.1	29.1	29.1	85	25.2	0	2	248	0.00	30.075 
16:20	29.3	29.3	29.3	85	25.4	0	1	248	0.00	30.075 
16:25	29.3	29.3	29.3	85	25.4	0	3	248	0.00	30.075 
16:30	29.3	29.3	29.3	85	25.4	1	4	270	0.00	30.074 
16:35	29.3	29.3	29.3	86	25.6	0	2	270	0.00	30.074 
16:40	29.4	29.4	29.4	86	25.7	0	1	270	0.00	30.074 
16:45	29.4	29.4	29.4	86	25.7	0	2	248	0.00	30.072 
16:50	29.4	29.4	29.4	86	25.7	0	2	315	0.00	30.072 
16:55	29.4	29.4	29.4	86	25.7	0	2	22	0.00	30.072 
17:00	29.4	29.4	29.4	86	25.7	0	2	270	0.00	30.069 
17:05	29.3	29.3	29.3	86	25.6	0	2	270	0.00	30.069 
17:10	29.4	29.4	29.4	86	25.7	0	2	270	0.00	30.069 
17:15	29.4	29.4	29.4	86	25.7	1	3	270	0.00	30.071 
17:20	29.4	29.4	29.4	86	25.7	0	2	270	0.00	30.071 
17:25	29.4	29.4	29.4	86	25.7	0	3	270	0.00	30.071 
17:30	29.4	29.4	29.4	86	25.7	0	2	270	0.00	30.073 
17:35	29.4	29.4	29.4	86	25.7	0	3	270	0.00	30.073 
17:40	29.4	29.4	29.4	87	26.0	0	2	248	0.00	30.073 
17:45	29.4	29.4	29.4	87	26.0	0	3	248	0.00	30.074 
17:50	29.4	29.4	29.4	87	26.0	0	2	248	0.00	30.074 
17:55	29.4	29.4	29.4	87	26.0	0	2	248	0.00	30.074 
18:00	29.5	29.5	29.5	87	26.1	0	2	248	0.00	30.077 
18:05	29.5	29.5	29.5	87	26.1	0	3	248	0.00	30.077 
18:10	29.5	29.5	29.5	87	26.1	0	2	248	0.00	30.077 
18:15	29.7	29.7	29.7	87	26.3	0	2	248	0.00	30.082 
18:20	29.7	29.7	29.7	88	26.6	0	2	248	0.00	30.082 
18:25	29.8	29.8	29.8	88	26.7	0	2	248	0.00	30.082 
18:30	29.8	29.8	29.8	88	26.7	0	2	248	0.00	30.086 
18:35	29.8	29.8	29.8	88	26.7	0	2	248	0.00	30.086 
18:40	30.0	30.0	30.0	88	26.9	0	1	248	0.00	30.086 
18:45	30.0	30.0	30.0	88	26.9	0	3	248	0.00	30.085 
18:50	30.1	30.1	30.1	88	27.0	0	3	248	0.00	30.085 
18:55	30.1	30.1	30.1	88	27.0	0	1	248	0.00	30.085 
19:00	30.1	30.1	30.1	88	27.0	0	1	248	0.00	30.089 
19:05	30.1	30.1	30.1	88	27.0	0	3	292	0.00	30.089 
19:10	30.3	30.3	30.3	88	27.2	0	2	270	0.00	30.089 
19:15	30.4	30.4	30.4	89	27.6	1	4	248	0.00	30.091 
19:20	30.6	30.6	30.6	89	27.8	1	3	248	0.00	30.091 
19:25	30.7	30.7	30.7	89	27.8	1	3	248	0.00	30.091 
19:30	30.9	30.9	30.9	89	28.0	0	3	248	0.00	30.086 
19:35	30.9	30.9	30.9	89	28.0	1	3	248	0.00	30.086 
19:40	31.0	31.0	31.0	89	28.1	0	2	248	0.00	30.086 
19:45	31.0	31.0	31.0	89	28.1	1	4	248	0.00	30.088 
19:50	31.0	31.0	31.0	89	28.1	1	2	248	0.00	30.088 
19:55	31.0	31.0	31.0	89	28.1	1	4	248	0.00	30.088 
20:00	31.2	31.2	31.2	89	28.3	1	5	248	0.00	30.093 
20:05	31.2	31.2	31.2	89	28.3	1	3	225	0.00	30.093 
20:10	31.2	31.2	31.2	89	28.3	1	3	248	0.00	30.093 
20:15	31.2	31.2	31.2	89	28.3	1	3	248	0.00	30.092 
20:20	31.3	31.3	31.3	89	28.4	0	2	248	0.00	30.092 
20:25	31.3	31.3	31.3	89	28.4	0	2	248	0.00	30.092 
20:30	31.3	31.3	31.3	89	28.4	1	4	248	0.00	30.098 
20:35	31.3	31.3	31.3	89	28.4	1	3	248	0.00	30.098 
20:40	31.5	31.5	31.5	89	28.6	1	3	248	0.00	30.098 
20:45	31.5	31.5	31.5	89	28.6	1	3	248	0.00	30.096 
20:50	31.5	31.5	31.5	88	28.4	1	4	248	0.00	30.096 
20:55	31.6	31.6	31.6	88	28.5	0	2	248	0.00	30.096 
21:00	31.6	31.6	31.6	88	28.5	1	3	248	0.00	30.094 
21:05	31.6	31.6	31.6	88	28.5	1	4	248	0.00	30.094 
21:10	31.6	31.6	31.6	88	28.5	1	2	270	0.00	30.094 
21:15	31.8	31.8	31.8	88	28.7	1	4	270	0.00	30.086 
21:20	31.8	31.8	31.8	88	28.7	1	3	68	0.00	30.086 
21:25	31.8	31.8	31.8	88	28.7	1	4	68	0.00	30.086 
21:30	31.8	31.8	31.8	88	28.7	1	4	248	0.00	30.083 
21:35	31.8	31.8	31.8	88	28.7	1	4	248	0.00	30.083 
21:40	31.8	31.8	31.8	88	28.7	1	4	248	0.00	30.083 
21:45	31.8	31.8	31.8	88	28.7	1	4	248	0.00	30.083 
21:50	31.8	31.8	31.8	88	28.7	1	5	248	0.00	30.083 
21:55	31.8	31.8	31.8	88	28.7	2	5	248	0.00	30.083 
22:00	31.8	31.8	31.8	88	28.7	1	5	225	0.00	30.083 
22:05	31.8	31.8	31.8	88	28.7	1	5	248	0.00	30.083 
22:10	31.8	31.8	31.8	88	28.7	2	4	248	0.00	30.083 
22:15	31.8	31.8	31.8	88	28.7	1	4	248	0.00	30.080 
22:20	31.6	31.6	31.6	87	28.2	2	5	248	0.00	30.080 
22:25	31.5	31.5	31.5	87	28.1	2	7	248	0.00	30.080 
22:30	31.3	31.3	31.3	87	27.9	2	7	248	0.00	30.081 
22:35	31.2	31.2	31.2	86	27.5	1	4	248	0.00	30.081 
22:40	31.2	31.2	31.2	86	27.5	2	7	248	0.00	30.081 
22:45	31.2	31.2	31.2	86	27.5	3	7	248	0.00	30.082 
22:50	31.2	27.2	31.2	86	27.5	4	10	270	0.00	30.082 
22:55	31.0	31.0	31.0	86	27.3	2	5	248	0.00	30.082 
23:00	31.0	31.0	31.0	86	27.3	3	9	248	0.00	30.086 
23:05	30.9	30.9	30.9	86	27.2	3	9	248	0.00	30.086 
23:10	30.7	30.7	30.7	86	27.0	3	10	248	0.00	30.086 
23:15	30.6	30.6	30.6	86	26.9	2	9	248	0.00	30.090 
23:20	30.4	30.4	30.4	86	26.7	3	10	248	0.00	30.090 
23:25	30.3	30.3	30.3	86	26.6	3	7	248	0.00	30.090 
23:30	30.0	30.0	30.0	85	26.0	3	11	248	0.00	30.097 
23:35	29.8	29.8	29.8	85	25.9	3	7	248	0.00	30.097 
23:40	29.8	29.8	29.8	85	25.9	3	6	248	0.00	30.097 
23:45	29.7	29.7	29.7	85	25.8	3	6	248	0.00	30.097 
23:50	29.7	29.7	29.7	85	25.8	2	4	248	0.00	30.097 
23:55	29.5	29.5	29.5	85	25.6	2	6	248	0.00	30.097 

CoCoRaHS
IN-AL-39
A2 Web Hosting
Creative Commons License
GoDaddy
search engine by freefind advanced

loaded 2018-11-22 05:46:03 • last modified 2010-11-18 10:43:29
Privacy PolicyDisclaimer
• wx.awcolley.com is powered by PmWiki v.2002016 •
• all content (unless otherwise noted) © 2018 A W Colley